sensor_id;sensor_type;location;lat;lon;timestamp;pressure;altitude;pressure_sealevel;temperature;humidity
55187;BME280;55457;52.002;5.464;2023-04-15T00:00:08;100644.41;;;21.40;40.12
55187;BME280;55457;52.002;5.464;2023-04-15T00:02:34;100646.09;;;21.41;40.05
55187;BME280;55457;52.002;5.464;2023-04-15T00:05:00;100646.09;;;21.41;40.20
55187;BME280;55457;52.002;5.464;2023-04-15T00:07:25;100644.41;;;21.40;40.17
55187;BME280;55457;52.002;5.464;2023-04-15T00:09:50;100643.38;;;21.41;39.96
55187;BME280;55457;52.002;5.464;2023-04-15T00:12:19;100644.41;;;21.40;40.00
55187;BME280;55457;52.002;5.464;2023-04-15T00:14:45;100643.59;;;21.40;40.10
55187;BME280;55457;52.002;5.464;2023-04-15T00:17:10;100643.59;;;21.40;40.22
55187;BME280;55457;52.002;5.464;2023-04-15T00:19:36;100640.06;;;21.39;39.99
55187;BME280;55457;52.002;5.464;2023-04-15T00:22:01;100641.72;;;21.40;40.04
55187;BME280;55457;52.002;5.464;2023-04-15T00:24:26;100632.75;;;21.40;40.10
55187;BME280;55457;52.002;5.464;2023-04-15T00:26:52;100636.81;;;21.37;40.23
55187;BME280;55457;52.002;5.464;2023-04-15T00:29:17;100630.31;;;21.38;40.17
55187;BME280;55457;52.002;5.464;2023-04-15T00:31:42;100635.75;;;21.38;40.22
55187;BME280;55457;52.002;5.464;2023-04-15T00:34:08;100634.91;;;21.38;40.18
55187;BME280;55457;52.002;5.464;2023-04-15T00:36:33;100637.38;;;21.39;40.31
55187;BME280;55457;52.002;5.464;2023-04-15T00:38:59;100641.16;;;21.38;40.09
55187;BME280;55457;52.002;5.464;2023-04-15T00:41:25;100635.75;;;21.38;40.22
55187;BME280;55457;52.002;5.464;2023-04-15T00:43:50;100644.94;;;21.37;40.41
55187;BME280;55457;52.002;5.464;2023-04-15T00:46:16;100645.75;;;21.38;40.25
55187;BME280;55457;52.002;5.464;2023-04-15T00:48:43;100647.66;;;21.37;40.20
55187;BME280;55457;52.002;5.464;2023-04-15T00:51:08;100644.94;;;21.37;40.34
55187;BME280;55457;52.002;5.464;2023-04-15T00:53:34;100643.31;;;21.36;40.41
55187;BME280;55457;52.002;5.464;2023-04-15T00:55:59;100646.03;;;21.36;40.45
55187;BME280;55457;52.002;5.464;2023-04-15T00:58:25;100642.50;;;21.35;40.27
55187;BME280;55457;52.002;5.464;2023-04-15T01:00:50;100648.75;;;21.36;40.42
55187;BME280;55457;52.002;5.464;2023-04-15T01:03:18;100654.16;;;21.36;40.31
55187;BME280;55457;52.002;5.464;2023-04-15T01:05:43;100647.94;;;21.35;40.27
55187;BME280;55457;52.002;5.464;2023-04-15T01:08:08;100648.75;;;21.36;40.39
55187;BME280;55457;52.002;5.464;2023-04-15T01:10:34;100640.84;;;21.34;40.41
55187;BME280;55457;52.002;5.464;2023-04-15T01:13:00;100644.38;;;21.35;40.34
55187;BME280;55457;52.002;5.464;2023-04-15T01:15:25;100647.06;;;21.35;40.47
55187;BME280;55457;52.002;5.464;2023-04-15T01:17:50;100640.84;;;21.34;40.45
55187;BME280;55457;52.002;5.464;2023-04-15T01:20:15;100643.81;;;21.33;40.52
55187;BME280;55457;52.002;5.464;2023-04-15T01:22:41;100645.44;;;21.34;40.27
55187;BME280;55457;52.002;5.464;2023-04-15T01:25:10;100644.63;;;21.33;40.32
55187;BME280;55457;52.002;5.464;2023-04-15T01:27:39;100642.72;;;21.34;40.25
55187;BME280;55457;52.002;5.464;2023-04-15T01:30:06;100641.09;;;21.33;40.55
55187;BME280;55457;52.002;5.464;2023-04-15T01:32:32;100641.09;;;21.33;40.40
55187;BME280;55457;52.002;5.464;2023-04-15T01:34:57;100641.09;;;21.33;40.34
55187;BME280;55457;52.002;5.464;2023-04-15T01:37:22;100638.41;;;21.33;40.50
55187;BME280;55457;52.002;5.464;2023-04-15T01:39:48;100641.09;;;21.33;40.41
55187;BME280;55457;52.002;5.464;2023-04-15T01:42:13;100644.63;;;21.33;40.33
55187;BME280;55457;52.002;5.464;2023-04-15T01:44:38;100640.56;;;21.31;40.34
55187;BME280;55457;52.002;5.464;2023-04-15T01:47:03;100644.91;;;21.32;40.44
55187;BME280;55457;52.002;5.464;2023-04-15T01:49:29;100645.97;;;21.31;40.27
55187;BME280;55457;52.002;5.464;2023-04-15T01:51:55;100637.84;;;21.31;40.50
55187;BME280;55457;52.002;5.464;2023-04-15T01:54:20;100644.34;;;21.30;40.40
55187;BME280;55457;52.002;5.464;2023-04-15T01:56:45;100644.34;;;21.30;40.52
55187;BME280;55457;52.002;5.464;2023-04-15T01:59:10;100646.78;;;21.31;40.32
55187;BME280;55457;52.002;5.464;2023-04-15T02:01:36;100651.38;;;21.31;40.70
55187;BME280;55457;52.002;5.464;2023-04-15T02:04:02;100649.75;;;21.30;40.35
55187;BME280;55457;52.002;5.464;2023-04-15T02:06:27;100644.34;;;21.30;40.51
55187;BME280;55457;52.002;5.464;2023-04-15T02:08:52;100648.88;;;21.29;40.37
55187;BME280;55457;52.002;5.464;2023-04-15T02:11:17;100644.34;;;21.30;40.49
55187;BME280;55457;52.002;5.464;2023-04-15T02:13:43;100648.06;;;21.29;40.48
55187;BME280;55457;52.002;5.464;2023-04-15T02:16:19;100654.31;;;21.29;40.40
55187;BME280;55457;52.002;5.464;2023-04-15T02:18:45;100650.78;;;21.29;40.65
55187;BME280;55457;52.002;5.464;2023-04-15T02:21:11;100658.91;;;21.29;40.35
55187;BME280;55457;52.002;5.464;2023-04-15T02:23:36;100667.84;;;21.29;40.56
55187;BME280;55457;52.002;5.464;2023-04-15T02:26:01;100655.38;;;21.28;40.52
55187;BME280;55457;52.002;5.464;2023-04-15T02:28:26;100662.69;;;21.28;40.56
55187;BME280;55457;52.002;5.464;2023-04-15T02:30:51;100675.44;;;21.27;40.48
55187;BME280;55457;52.002;5.464;2023-04-15T02:33:18;100660.00;;;21.28;40.76
55187;BME280;55457;52.002;5.464;2023-04-15T02:35:43;100677.34;;;21.27;40.52
55187;BME280;55457;52.002;5.464;2023-04-15T02:38:09;100671.91;;;21.27;40.48
55187;BME280;55457;52.002;5.464;2023-04-15T02:40:35;100679.22;;;21.26;40.54
55187;BME280;55457;52.002;5.464;2023-04-15T02:43:00;100678.16;;;21.27;40.63
55187;BME280;55457;52.002;5.464;2023-04-15T02:45:25;100677.34;;;21.27;40.63
55187;BME280;55457;52.002;5.464;2023-04-15T02:47:52;100675.69;;;21.26;40.54
55187;BME280;55457;52.002;5.464;2023-04-15T02:50:17;100688.97;;;21.27;40.63
55187;BME280;55457;52.002;5.464;2023-04-15T02:52:42;100690.88;;;21.27;40.73
55187;BME280;55457;52.002;5.464;2023-04-15T02:55:08;100686.53;;;21.26;40.43
55187;BME280;55457;52.002;5.464;2023-04-15T02:57:34;100690.88;;;21.27;40.55
55187;BME280;55457;52.002;5.464;2023-04-15T03:00:02;100696.56;;;21.25;40.46
55187;BME280;55457;52.002;5.464;2023-04-15T03:02:32;100698.19;;;21.26;40.63
55187;BME280;55457;52.002;5.464;2023-04-15T03:04:57;100700.09;;;21.26;40.47
55187;BME280;55457;52.002;5.464;2023-04-15T03:07:22;100692.19;;;21.24;40.53
55187;BME280;55457;52.002;5.464;2023-04-15T03:09:47;100700.31;;;21.24;40.67
55187;BME280;55457;52.002;5.464;2023-04-15T03:12:13;100696.78;;;21.24;40.54
55187;BME280;55457;52.002;5.464;2023-04-15T03:14:38;100700.31;;;21.24;40.80
55187;BME280;55457;52.002;5.464;2023-04-15T03:17:03;100704.94;;;21.24;40.54
55187;BME280;55457;52.002;5.464;2023-04-15T03:19:28;100697.88;;;21.23;40.51
55187;BME280;55457;52.002;5.464;2023-04-15T03:21:54;100703.28;;;21.23;40.27
55187;BME280;55457;52.002;5.464;2023-04-15T03:24:19;100707.63;;;21.24;40.68
55187;BME280;55457;52.002;5.464;2023-04-15T03:26:44;100708.72;;;21.23;40.62
55187;BME280;55457;52.002;5.464;2023-04-15T03:29:10;100709.53;;;21.23;40.43
55187;BME280;55457;52.002;5.464;2023-04-15T03:31:35;100714.13;;;21.23;40.66
55187;BME280;55457;52.002;5.464;2023-04-15T03:34:00;100714.13;;;21.23;40.46
55187;BME280;55457;52.002;5.464;2023-04-15T03:36:26;100708.72;;;21.23;40.44
55187;BME280;55457;52.002;5.464;2023-04-15T03:38:51;100709.78;;;21.22;40.59
55187;BME280;55457;52.002;5.464;2023-04-15T03:41:16;100710.88;;;21.21;40.46
55187;BME280;55457;52.002;5.464;2023-04-15T03:43:42;100717.91;;;21.22;40.42
55187;BME280;55457;52.002;5.464;2023-04-15T03:46:07;100727.69;;;21.23;40.58
55187;BME280;55457;52.002;5.464;2023-04-15T03:48:32;100720.63;;;21.22;40.54
55187;BME280;55457;52.002;5.464;2023-04-15T03:50:57;100727.13;;;21.21;40.58
55187;BME280;55457;52.002;5.464;2023-04-15T03:53:23;100733.38;;;21.21;40.39
55187;BME280;55457;52.002;5.464;2023-04-15T03:55:48;100728.75;;;21.22;40.54
55187;BME280;55457;52.002;5.464;2023-04-15T03:58:13;100732.56;;;21.21;40.27
55187;BME280;55457;52.002;5.464;2023-04-15T04:00:39;100737.97;;;21.21;40.45
55187;BME280;55457;52.002;5.464;2023-04-15T04:03:05;100743.38;;;21.21;40.46
55187;BME280;55457;52.002;5.464;2023-04-15T04:05:31;100741.75;;;21.20;40.41
55187;BME280;55457;52.002;5.464;2023-04-15T04:07:56;100752.59;;;21.20;40.47
55187;BME280;55457;52.002;5.464;2023-04-15T04:10:21;100749.88;;;21.20;40.42
55187;BME280;55457;52.002;5.464;2023-04-15T04:12:46;100750.94;;;21.19;40.42
55187;BME280;55457;52.002;5.464;2023-04-15T04:15:11;100758.03;;;21.20;40.66
55187;BME280;55457;52.002;5.464;2023-04-15T04:17:37;100750.13;;;21.18;40.40
55187;BME280;55457;52.002;5.464;2023-04-15T04:20:02;100758.25;;;21.18;40.54
55187;BME280;55457;52.002;5.464;2023-04-15T04:22:27;100761.78;;;21.19;40.34
55187;BME280;55457;52.002;5.464;2023-04-15T04:24:53;100764.47;;;21.19;40.53
55187;BME280;55457;52.002;5.464;2023-04-15T04:27:18;100767.19;;;21.19;40.57
55187;BME280;55457;52.002;5.464;2023-04-15T04:29:43;100767.19;;;21.19;40.47
55187;BME280;55457;52.002;5.464;2023-04-15T04:32:08;100768.28;;;21.18;40.54
55187;BME280;55457;52.002;5.464;2023-04-15T04:34:34;100767.19;;;21.19;40.36
55187;BME280;55457;52.002;5.464;2023-04-15T04:37:00;100778.03;;;21.19;40.46
55187;BME280;55457;52.002;5.464;2023-04-15T04:39:25;100772.88;;;21.17;40.34
55187;BME280;55457;52.002;5.464;2023-04-15T04:41:52;100777.22;;;21.18;40.43
55187;BME280;55457;52.002;5.464;2023-04-15T04:44:17;100784.53;;;21.18;40.37
55187;BME280;55457;52.002;5.464;2023-04-15T04:46:43;100782.63;;;21.18;40.56
55187;BME280;55457;52.002;5.464;2023-04-15T04:49:08;100798.66;;;21.20;40.48
55187;BME280;55457;52.002;5.464;2023-04-15T04:51:33;100792.66;;;21.18;40.49
55187;BME280;55457;52.002;5.464;2023-04-15T04:53:58;100797.25;;;21.17;40.41
55187;BME280;55457;52.002;5.464;2023-04-15T04:56:24;100803.50;;;21.18;40.33
55187;BME280;55457;52.002;5.464;2023-04-15T04:58:49;100814.34;;;21.18;40.58
55187;BME280;55457;52.002;5.464;2023-04-15T05:01:15;100813.53;;;21.17;40.54
55187;BME280;55457;52.002;5.464;2023-04-15T05:03:40;100817.06;;;21.18;40.43
55187;BME280;55457;52.002;5.464;2023-04-15T05:06:05;100818.94;;;21.17;40.42
55187;BME280;55457;52.002;5.464;2023-04-15T05:08:32;100820.03;;;21.16;40.36
55187;BME280;55457;52.002;5.464;2023-04-15T05:10:58;100828.97;;;21.17;40.57
55187;BME280;55457;52.002;5.464;2023-04-15T05:13:23;100823.53;;;21.17;40.54
55187;BME280;55457;52.002;5.464;2023-04-15T05:15:48;100834.38;;;21.17;40.50
55187;BME280;55457;52.002;5.464;2023-04-15T05:18:13;100838.16;;;21.16;40.42
55187;BME280;55457;52.002;5.464;2023-04-15T05:20:38;100838.16;;;21.16;40.61
55187;BME280;55457;52.002;5.464;2023-04-15T05:23:04;100843.59;;;21.16;40.50
55187;BME280;55457;52.002;5.464;2023-04-15T05:25:29;100844.66;;;21.15;40.46
55187;BME280;55457;52.002;5.464;2023-04-15T05:27:54;100847.38;;;21.15;40.62
55187;BME280;55457;52.002;5.464;2023-04-15T05:30:20;100852.81;;;21.15;40.52
55187;BME280;55457;52.002;5.464;2023-04-15T05:32:46;100861.75;;;21.15;40.56
55187;BME280;55457;52.002;5.464;2023-04-15T05:35:11;100859.25;;;21.14;40.52
55187;BME280;55457;52.002;5.464;2023-04-15T05:37:36;100866.34;;;21.15;40.72
55187;BME280;55457;52.002;5.464;2023-04-15T05:40:02;100867.38;;;21.14;40.47
55187;BME280;55457;52.002;5.464;2023-04-15T05:42:28;100868.22;;;21.14;40.85
55187;BME280;55457;52.002;5.464;2023-04-15T05:44:53;100877.41;;;21.13;40.65
55187;BME280;55457;52.002;5.464;2023-04-15T05:47:18;100880.13;;;21.13;40.78
55187;BME280;55457;52.002;5.464;2023-04-15T05:49:44;100888.25;;;21.13;40.75
55187;BME280;55457;52.002;5.464;2023-04-15T05:52:09;100890.16;;;21.13;40.53
55187;BME280;55457;52.002;5.464;2023-04-15T05:54:34;100888.25;;;21.13;40.58
55187;BME280;55457;52.002;5.464;2023-04-15T05:57:00;100898.28;;;21.13;40.77
55187;BME280;55457;52.002;5.464;2023-04-15T05:59:26;100910.75;;;21.14;40.50
55187;BME280;55457;52.002;5.464;2023-04-15T06:01:52;100915.34;;;21.13;40.67
55187;BME280;55457;52.002;5.464;2023-04-15T06:04:17;100917.25;;;21.13;40.51
55187;BME280;55457;52.002;5.464;2023-04-15T06:06:43;100916.16;;;21.14;40.51
55187;BME280;55457;52.002;5.464;2023-04-15T06:09:08;100936.22;;;21.13;40.68
55187;BME280;55457;52.002;5.464;2023-04-15T06:11:33;100930.78;;;21.13;40.54
55187;BME280;55457;52.002;5.464;2023-04-15T06:13:59;100940.81;;;21.12;40.58
55187;BME280;55457;52.002;5.464;2023-04-15T06:16:24;100940.00;;;21.11;40.58
55187;BME280;55457;52.002;5.464;2023-04-15T06:18:49;100938.94;;;21.13;40.38
55187;BME280;55457;52.002;5.464;2023-04-15T06:21:14;100947.06;;;21.13;40.78
55187;BME280;55457;52.002;5.464;2023-04-15T06:23:40;100941.63;;;21.13;40.60
55187;BME280;55457;52.002;5.464;2023-04-15T06:26:05;100949.75;;;21.13;40.58
55187;BME280;55457;52.002;5.464;2023-04-15T06:28:31;100946.22;;;21.12;40.57
55187;BME280;55457;52.002;5.464;2023-04-15T06:30:56;100958.72;;;21.13;40.78
55187;BME280;55457;52.002;5.464;2023-04-15T06:33:21;100957.91;;;21.13;40.99
55187;BME280;55457;52.002;5.464;2023-04-15T06:35:46;100960.59;;;21.13;40.87
55187;BME280;55457;52.002;5.464;2023-04-15T06:38:13;100961.69;;;21.11;40.94
55187;BME280;55457;52.002;5.464;2023-04-15T06:40:38;100966.03;;;21.13;41.01
55187;BME280;55457;52.002;5.464;2023-04-15T06:43:04;100974.16;;;21.13;40.86
55187;BME280;55457;52.002;5.464;2023-04-15T06:45:29;100979.56;;;21.13;40.75
55187;BME280;55457;52.002;5.464;2023-04-15T06:47:55;100986.63;;;21.14;40.72
55187;BME280;55457;52.002;5.464;2023-04-15T06:50:20;100988.28;;;21.15;40.71
55187;BME280;55457;52.002;5.464;2023-04-15T06:52:45;100988.28;;;21.15;40.70
55187;BME280;55457;52.002;5.464;2023-04-15T06:55:11;100995.34;;;21.16;40.59
55187;BME280;55457;52.002;5.464;2023-04-15T06:57:36;101000.78;;;21.16;40.56
55187;BME280;55457;52.002;5.464;2023-04-15T07:00:01;101002.41;;;21.17;40.56
55187;BME280;55457;52.002;5.464;2023-04-15T07:02:29;101013.25;;;21.17;40.62
55187;BME280;55457;52.002;5.464;2023-04-15T07:04:55;101011.63;;;21.16;40.68
55187;BME280;55457;52.002;5.464;2023-04-15T07:07:20;101015.41;;;21.15;40.50
55187;BME280;55457;52.002;5.464;2023-04-15T07:09:46;101019.75;;;21.16;40.51
55187;BME280;55457;52.002;5.464;2023-04-15T07:12:11;101018.69;;;21.17;40.65
55187;BME280;55457;52.002;5.464;2023-04-15T07:14:37;101026.81;;;21.17;40.55
55187;BME280;55457;52.002;5.464;2023-04-15T07:17:02;101029.50;;;21.17;40.59
55187;BME280;55457;52.002;5.464;2023-04-15T07:19:27;101034.94;;;21.17;40.61
55187;BME280;55457;52.002;5.464;2023-04-15T07:21:52;101037.41;;;21.18;40.39
55187;BME280;55457;52.002;5.464;2023-04-15T07:24:17;101038.22;;;21.19;40.39
55187;BME280;55457;52.002;5.464;2023-04-15T07:26:44;101040.69;;;21.20;40.61
55187;BME280;55457;52.002;5.464;2023-04-15T07:29:09;101048.59;;;21.22;40.31
55187;BME280;55457;52.002;5.464;2023-04-15T07:31:35;101050.22;;;21.23;40.43
55187;BME280;55457;52.002;5.464;2023-04-15T07:34:01;101050.22;;;21.23;40.48
55187;BME280;55457;52.002;5.464;2023-04-15T07:36:26;101046.44;;;21.24;40.39
55187;BME280;55457;52.002;5.464;2023-04-15T07:38:53;101050.22;;;21.23;40.19
55187;BME280;55457;52.002;5.464;2023-04-15T07:41:19;101058.94;;;21.25;40.29
55187;BME280;55457;52.002;5.464;2023-04-15T07:43:44;101056.25;;;21.25;40.59
55187;BME280;55457;52.002;5.464;2023-04-15T07:46:10;101059.50;;;21.27;40.21
55187;BME280;55457;52.002;5.464;2023-04-15T07:48:35;101055.16;;;21.26;40.25
55187;BME280;55457;52.002;5.464;2023-04-15T07:51:00;101066.56;;;21.28;40.23
55187;BME280;55457;52.002;5.464;2023-04-15T07:53:26;101063.03;;;21.27;40.36
55187;BME280;55457;52.002;5.464;2023-04-15T07:55:51;101075.53;;;21.28;40.41
55187;BME280;55457;52.002;5.464;2023-04-15T07:58:17;101070.91;;;21.29;40.34
55187;BME280;55457;52.002;5.464;2023-04-15T08:00:42;101071.75;;;21.29;40.40
55187;BME280;55457;52.002;5.464;2023-04-15T08:03:07;101081.56;;;21.30;40.10
55187;BME280;55457;52.002;5.464;2023-04-15T08:05:32;101086.75;;;21.32;39.93
55187;BME280;55457;52.002;5.464;2023-04-15T08:07:58;101090.53;;;21.31;39.76
55187;BME280;55457;52.002;5.464;2023-04-15T08:10:23;101082.13;;;21.32;39.87
55187;BME280;55457;52.002;5.464;2023-04-15T08:12:48;101088.94;;;21.35;40.01
55187;BME280;55457;52.002;5.464;2023-04-15T08:15:18;101093.34;;;21.36;40.21
55187;BME280;55457;52.002;5.464;2023-04-15T08:17:43;101091.19;;;21.38;40.17
55187;BME280;55457;52.002;5.464;2023-04-15T08:20:09;101091.75;;;21.40;40.33
55187;BME280;55457;52.002;5.464;2023-04-15T08:22:34;101098.59;;;21.43;40.25
55187;BME280;55457;52.002;5.464;2023-04-15T08:24:59;101105.41;;;21.45;40.20
55187;BME280;55457;52.002;5.464;2023-04-15T08:27:24;101111.41;;;21.47;40.29
55187;BME280;55457;52.002;5.464;2023-04-15T08:29:50;101108.19;;;21.50;40.50
55187;BME280;55457;52.002;5.464;2023-04-15T08:32:15;101115.84;;;21.53;40.30
55187;BME280;55457;52.002;5.464;2023-04-15T08:34:40;101123.53;;;21.56;40.28
55187;BME280;55457;52.002;5.464;2023-04-15T08:37:06;101121.13;;;21.60;40.48
55187;BME280;55457;52.002;5.464;2023-04-15T08:39:31;101130.66;;;21.62;39.97
55187;BME280;55457;52.002;5.464;2023-04-15T08:44:22;101135.94;;;21.69;40.41
55187;BME280;55457;52.002;5.464;2023-04-15T08:46:47;101144.41;;;21.73;40.31
55187;BME280;55457;52.002;5.464;2023-04-15T08:49:13;101146.63;;;21.76;40.10
55187;BME280;55457;52.002;5.464;2023-04-15T08:51:39;101151.81;;;21.77;40.32
55187;BME280;55457;52.002;5.464;2023-04-15T08:54:05;101160.28;;;21.81;40.23
55187;BME280;55457;52.002;5.464;2023-04-15T08:56:31;101154.38;;;21.84;40.30
55187;BME280;55457;52.002;5.464;2023-04-15T08:58:57;101169.31;;;21.86;39.81
55187;BME280;55457;52.002;5.464;2023-04-15T09:01:22;101162.84;;;21.87;40.21
55187;BME280;55457;52.002;5.464;2023-04-15T09:03:48;101177.78;;;21.90;40.16
55187;BME280;55457;52.002;5.464;2023-04-15T09:06:18;101180.03;;;21.93;39.97
55187;BME280;55457;52.002;5.464;2023-04-15T09:08:44;101178.97;;;21.94;39.93
55187;BME280;55457;52.002;5.464;2023-04-15T09:11:09;101191.19;;;21.97;40.01
55187;BME280;55457;52.002;5.464;2023-04-15T09:13:35;101192.00;;;21.97;39.81
55187;BME280;55457;52.002;5.464;2023-04-15T09:16:01;101186.38;;;21.99;39.66
55187;BME280;55457;52.002;5.464;2023-04-15T09:18:31;101198.59;;;22.01;39.73
55187;BME280;55457;52.002;5.464;2023-04-15T09:21:06;101196.72;;;22.02;39.57
55187;BME280;55457;52.002;5.464;2023-04-15T09:23:33;101201.06;;;22.03;39.55
55187;BME280;55457;52.002;5.464;2023-04-15T09:25:58;101205.19;;;22.05;39.53
55187;BME280;55457;52.002;5.464;2023-04-15T09:28:24;101208.97;;;22.04;39.64
55187;BME280;55457;52.002;5.464;2023-04-15T09:30:51;101212.25;;;22.06;39.42
55187;BME280;55457;52.002;5.464;2023-04-15T09:33:16;101210.16;;;22.08;39.35
55187;BME280;55457;52.002;5.464;2023-04-15T09:35:41;101207.44;;;22.08;39.30
55187;BME280;55457;52.002;5.464;2023-04-15T09:38:19;101211.66;;;22.16;39.30
55187;BME280;55457;52.002;5.464;2023-04-15T09:40:45;101212.81;;;22.20;39.44
55187;BME280;55457;52.002;5.464;2023-04-15T09:43:10;101215.59;;;22.25;39.16
55187;BME280;55457;52.002;5.464;2023-04-15T09:45:37;101207.75;;;22.29;39.43
55187;BME280;55457;52.002;5.464;2023-04-15T09:48:18;101223.56;;;22.32;39.29
55187;BME280;55457;52.002;5.464;2023-04-15T09:50:47;101218.72;;;22.34;39.27
55187;BME280;55457;52.002;5.464;2023-04-15T09:53:17;101228.53;;;22.35;39.27
55187;BME280;55457;52.002;5.464;2023-04-15T09:55:44;101231.53;;;22.38;38.94
55187;BME280;55457;52.002;5.464;2023-04-15T09:58:23;101226.72;;;22.40;38.92
55187;BME280;55457;52.002;5.464;2023-04-15T10:00:49;101240.03;;;22.42;39.09
55187;BME280;55457;52.002;5.464;2023-04-15T10:03:17;101243.31;;;22.44;38.96
55187;BME280;55457;52.002;5.464;2023-04-15T10:05:43;101240.66;;;22.49;38.54
55187;BME280;55457;52.002;5.464;2023-04-15T10:08:09;101249.50;;;22.56;37.23
55187;BME280;55457;52.002;5.464;2023-04-15T10:10:37;101245.69;;;22.57;35.82
55187;BME280;55457;52.002;5.464;2023-04-15T10:13:02;101249.50;;;22.56;35.31
55187;BME280;55457;52.002;5.464;2023-04-15T10:15:28;101247.59;;;22.57;35.03
55187;BME280;55457;52.002;5.464;2023-04-15T10:17:53;101251.38;;;22.56;34.24
55187;BME280;55457;52.002;5.464;2023-04-15T10:20:20;101250.56;;;22.55;34.31
55187;BME280;55457;52.002;5.464;2023-04-15T10:22:46;101256.56;;;22.57;33.89
55187;BME280;55457;52.002;5.464;2023-04-15T10:25:12;101254.66;;;22.58;33.91
55187;BME280;55457;52.002;5.464;2023-04-15T10:27:39;101254.94;;;22.56;33.79
55187;BME280;55457;52.002;5.464;2023-04-15T10:30:06;101258.13;;;22.53;33.93
55187;BME280;55457;52.002;5.464;2023-04-15T10:32:33;101261.34;;;22.50;33.86
55187;BME280;55457;52.002;5.464;2023-04-15T10:34:58;101262.41;;;22.49;33.58
55187;BME280;55457;52.002;5.464;2023-04-15T10:37:33;101261.84;;;22.47;33.78
55187;BME280;55457;52.002;5.464;2023-04-15T10:39:59;101262.41;;;22.49;33.78
55187;BME280;55457;52.002;5.464;2023-04-15T10:42:24;101264.81;;;22.46;34.14
55187;BME280;55457;52.002;5.464;2023-04-15T10:44:57;101269.72;;;22.49;34.21
55187;BME280;55457;52.002;5.464;2023-04-15T10:47:22;101267.44;;;22.57;34.12
55187;BME280;55457;52.002;5.464;2023-04-15T10:49:51;101273.44;;;22.59;34.22
55187;BME280;55457;52.002;5.464;2023-04-15T10:52:24;101269.66;;;22.60;34.21
55187;BME280;55457;52.002;5.464;2023-04-15T10:57:37;101273.59;;;22.70;34.05
55187;BME280;55457;52.002;5.464;2023-04-15T11:00:10;101277.94;;;22.71;33.73
55187;BME280;55457;52.002;5.464;2023-04-15T11:02:44;101280.75;;;22.76;33.88
55187;BME280;55457;52.002;5.464;2023-04-15T11:05:10;101288.41;;;22.79;33.67
55187;BME280;55457;52.002;5.464;2023-04-15T11:07:40;101282.00;;;22.68;34.01
55187;BME280;55457;52.002;5.464;2023-04-15T11:11:06;101281.09;;;22.62;34.36
55187;BME280;55457;52.002;5.464;2023-04-15T11:17:54;101291.53;;;22.54;35.05
55187;BME280;55457;52.002;5.464;2023-04-15T11:20:20;101293.25;;;22.60;35.24
55187;BME280;55457;52.002;5.464;2023-04-15T11:22:47;101293.94;;;22.67;35.46
55187;BME280;55457;52.002;5.464;2023-04-15T11:25:21;101291.03;;;22.74;35.43
55187;BME280;55457;52.002;5.464;2023-04-15T11:27:46;101301.91;;;22.74;35.40
55187;BME280;55457;52.002;5.464;2023-04-15T11:30:21;101302.47;;;22.76;35.70
55187;BME280;55457;52.002;5.464;2023-04-15T11:32:47;101314.28;;;22.81;35.66
55187;BME280;55457;52.002;5.464;2023-04-15T11:35:13;101298.88;;;22.87;35.54
55187;BME280;55457;52.002;5.464;2023-04-15T11:37:38;101305.78;;;22.95;35.53
55187;BME280;55457;52.002;5.464;2023-04-15T11:40:03;101309.41;;;23.00;35.35
55187;BME280;55457;52.002;5.464;2023-04-15T11:42:28;101299.13;;;23.02;35.75
55187;BME280;55457;52.002;5.464;2023-04-15T11:45:06;101307.84;;;23.04;35.63
55187;BME280;55457;52.002;5.464;2023-04-15T11:47:33;101325.88;;;23.10;35.79
55187;BME280;55457;52.002;5.464;2023-04-15T11:50:12;101321.56;;;23.14;35.70
55187;BME280;55457;52.002;5.464;2023-04-15T11:52:37;101328.16;;;23.18;35.50
55187;BME280;55457;52.002;5.464;2023-04-15T11:55:03;101333.09;;;23.22;35.31
55187;BME280;55457;52.002;5.464;2023-04-15T11:57:31;101332.59;;;23.25;35.51
55187;BME280;55457;52.002;5.464;2023-04-15T11:59:56;101331.84;;;23.29;35.68
55187;BME280;55457;52.002;5.464;2023-04-15T12:02:29;101342.13;;;23.27;35.79
55187;BME280;55457;52.002;5.464;2023-04-15T12:05:01;101343.78;;;23.28;35.73
55187;BME280;55457;52.002;5.464;2023-04-15T12:07:27;101351.69;;;23.30;35.89
55187;BME280;55457;52.002;5.464;2023-04-15T12:09:55;101352.00;;;23.33;36.08
55187;BME280;55457;52.002;5.464;2023-04-15T12:12:21;101350.44;;;23.37;35.90
55187;BME280;55457;52.002;5.464;2023-04-15T12:14:47;101355.88;;;23.37;35.85
55187;BME280;55457;52.002;5.464;2023-04-15T12:17:15;101367.09;;;23.41;36.22
55187;BME280;55457;52.002;5.464;2023-04-15T12:19:41;101371.78;;;23.46;36.06
55187;BME280;55457;52.002;5.464;2023-04-15T12:24:35;101360.97;;;23.51;36.02
55187;BME280;55457;52.002;5.464;2023-04-15T12:27:02;101370.13;;;23.44;36.16
55187;BME280;55457;52.002;5.464;2023-04-15T12:29:28;101376.94;;;23.47;36.50
55187;BME280;55457;52.002;5.464;2023-04-15T12:31:54;101370.19;;;23.50;36.08
55187;BME280;55457;52.002;5.464;2023-04-15T12:36:52;101381.72;;;23.57;36.30
55187;BME280;55457;52.002;5.464;2023-04-15T12:39:20;101377.84;;;23.53;36.12
55187;BME280;55457;52.002;5.464;2023-04-15T12:41:45;101384.63;;;23.50;36.27
55187;BME280;55457;52.002;5.464;2023-04-15T12:44:10;101393.88;;;23.49;36.15
55187;BME280;55457;52.002;5.464;2023-04-15T12:46:36;101391.63;;;23.46;36.40
55187;BME280;55457;52.002;5.464;2023-04-15T12:49:01;101402.19;;;23.42;36.31
55187;BME280;55457;52.002;5.464;2023-04-15T12:51:26;101407.53;;;23.37;35.94
55187;BME280;55457;52.002;5.464;2023-04-15T12:53:52;101417.53;;;23.32;36.35
55187;BME280;55457;52.002;5.464;2023-04-15T12:56:17;101416.44;;;23.33;36.26
55187;BME280;55457;52.002;5.464;2023-04-15T12:58:42;101405.09;;;23.36;36.32